Terminal Aerodrome Forecast
Issued by NWS

Home | Current Version | Previous Version | Text Only | Print | Product List | Glossary On
Versions: 1 2 3 4 5 6 7 8 9 10 11 12
000
FTUS45 KABQ 281100
TAFFMN
TAF
KFMN 281131Z 2812/2912 08006KT P6SM SCT050 SCT070
     FM281700 VRB06KT P6SM SCT070
     FM282000 29010KT P6SM SCT080 SCT120
     FM290300 09006KT P6SM FEW070 BKN140=

USA.gov is the U.S. government's official web portal to all federal, state and local government web resources and services.